sensor_id;sensor_type;location;lat;lon;timestamp;temperature;humidity
24402;DHT22;12539;48.808;11.292;2023-07-20T00:01:45;21.20;68.30
24402;DHT22;12539;48.808;11.292;2023-07-20T00:04:11;21.20;68.20
24402;DHT22;12539;48.808;11.292;2023-07-20T00:06:37;21.20;68.20
24402;DHT22;12539;48.808;11.292;2023-07-20T00:09:06;21.20;68.20
24402;DHT22;12539;48.808;11.292;2023-07-20T00:11:34;21.20;68.20
24402;DHT22;12539;48.808;11.292;2023-07-20T00:14:00;21.20;68.30
24402;DHT22;12539;48.808;11.292;2023-07-20T00:16:28;21.10;68.30
24402;DHT22;12539;48.808;11.292;2023-07-20T00:18:54;21.10;68.40
24402;DHT22;12539;48.808;11.292;2023-07-20T00:21:19;21.10;68.60
24402;DHT22;12539;48.808;11.292;2023-07-20T00:23:45;21.00;68.70
24402;DHT22;12539;48.808;11.292;2023-07-20T00:26:10;20.90;68.80
24402;DHT22;12539;48.808;11.292;2023-07-20T00:28:36;20.90;69.10
24402;DHT22;12539;48.808;11.292;2023-07-20T00:31:02;20.80;69.30
24402;DHT22;12539;48.808;11.292;2023-07-20T00:33:28;20.80;69.60
24402;DHT22;12539;48.808;11.292;2023-07-20T00:35:53;20.80;69.90
24402;DHT22;12539;48.808;11.292;2023-07-20T00:38:19;20.70;70.20
24402;DHT22;12539;48.808;11.292;2023-07-20T00:40:45;20.70;70.30
24402;DHT22;12539;48.808;11.292;2023-07-20T00:43:11;20.70;70.20
24402;DHT22;12539;48.808;11.292;2023-07-20T00:45:37;20.60;70.00
24402;DHT22;12539;48.808;11.292;2023-07-20T00:48:04;20.60;70.10
24402;DHT22;12539;48.808;11.292;2023-07-20T00:50:30;20.60;70.40
24402;DHT22;12539;48.808;11.292;2023-07-20T00:52:56;20.50;70.60
24402;DHT22;12539;48.808;11.292;2023-07-20T00:55:22;20.50;70.50
24402;DHT22;12539;48.808;11.292;2023-07-20T00:57:48;20.50;70.50
24402;DHT22;12539;48.808;11.292;2023-07-20T01:00:15;20.50;70.40
24402;DHT22;12539;48.808;11.292;2023-07-20T01:02:40;20.40;70.30
24402;DHT22;12539;48.808;11.292;2023-07-20T01:05:06;20.40;70.40
24402;DHT22;12539;48.808;11.292;2023-07-20T01:07:34;20.40;70.40
24402;DHT22;12539;48.808;11.292;2023-07-20T01:12:55;20.40;70.40
24402;DHT22;12539;48.808;11.292;2023-07-20T01:15:21;20.40;70.80
24402;DHT22;12539;48.808;11.292;2023-07-20T01:17:47;20.30;70.80
24402;DHT22;12539;48.808;11.292;2023-07-20T01:20:13;20.30;70.90
24402;DHT22;12539;48.808;11.292;2023-07-20T01:32:52;20.30;70.80
24402;DHT22;12539;48.808;11.292;2023-07-20T01:35:19;20.30;70.80
24402;DHT22;12539;48.808;11.292;2023-07-20T01:37:45;20.30;70.70
24402;DHT22;12539;48.808;11.292;2023-07-20T01:40:12;20.30;70.70
24402;DHT22;12539;48.808;11.292;2023-07-20T01:42:38;20.30;70.60
24402;DHT22;12539;48.808;11.292;2023-07-20T01:45:08;20.30;70.70
24402;DHT22;12539;48.808;11.292;2023-07-20T01:47:34;20.30;70.70
24402;DHT22;12539;48.808;11.292;2023-07-20T01:49:59;20.40;70.60
24402;DHT22;12539;48.808;11.292;2023-07-20T01:52:25;20.40;70.60
24402;DHT22;12539;48.808;11.292;2023-07-20T01:54:50;20.40;70.50
24402;DHT22;12539;48.808;11.292;2023-07-20T01:57:16;20.50;70.40
24402;DHT22;12539;48.808;11.292;2023-07-20T01:59:41;20.50;70.40
24402;DHT22;12539;48.808;11.292;2023-07-20T02:02:08;20.50;70.50
24402;DHT22;12539;48.808;11.292;2023-07-20T02:04:33;20.50;70.40
24402;DHT22;12539;48.808;11.292;2023-07-20T02:06:59;20.50;70.40
24402;DHT22;12539;48.808;11.292;2023-07-20T02:09:24;20.50;70.40
24402;DHT22;12539;48.808;11.292;2023-07-20T02:11:50;20.50;70.40
24402;DHT22;12539;48.808;11.292;2023-07-20T02:14:16;20.60;70.40
24402;DHT22;12539;48.808;11.292;2023-07-20T02:16:41;20.60;70.40
24402;DHT22;12539;48.808;11.292;2023-07-20T02:19:07;20.60;70.40
24402;DHT22;12539;48.808;11.292;2023-07-20T02:21:32;20.60;70.30
24402;DHT22;12539;48.808;11.292;2023-07-20T02:23:58;20.60;70.10
24402;DHT22;12539;48.808;11.292;2023-07-20T02:26:24;20.60;70.30
24402;DHT22;12539;48.808;11.292;2023-07-20T02:28:50;20.60;70.40
24402;DHT22;12539;48.808;11.292;2023-07-20T02:31:16;20.60;70.50
24402;DHT22;12539;48.808;11.292;2023-07-20T02:33:41;20.60;70.50
24402;DHT22;12539;48.808;11.292;2023-07-20T02:36:07;20.60;70.60
24402;DHT22;12539;48.808;11.292;2023-07-20T02:38:32;20.60;70.60
24402;DHT22;12539;48.808;11.292;2023-07-20T02:40:58;20.60;70.60
24402;DHT22;12539;48.808;11.292;2023-07-20T02:43:23;20.60;70.60
24402;DHT22;12539;48.808;11.292;2023-07-20T02:45:50;20.60;70.60
24402;DHT22;12539;48.808;11.292;2023-07-20T02:48:15;20.60;70.60
24402;DHT22;12539;48.808;11.292;2023-07-20T02:50:41;20.60;70.50
24402;DHT22;12539;48.808;11.292;2023-07-20T02:53:06;20.60;70.60
24402;DHT22;12539;48.808;11.292;2023-07-20T02:55:32;20.60;70.60
24402;DHT22;12539;48.808;11.292;2023-07-20T02:57:58;20.50;70.50
24402;DHT22;12539;48.808;11.292;2023-07-20T03:00:24;20.50;70.30
24402;DHT22;12539;48.808;11.292;2023-07-20T03:02:49;20.40;70.30
24402;DHT22;12539;48.808;11.292;2023-07-20T03:05:24;20.40;70.20
24402;DHT22;12539;48.808;11.292;2023-07-20T03:07:50;20.40;70.40
24402;DHT22;12539;48.808;11.292;2023-07-20T03:10:16;20.30;70.40
24402;DHT22;12539;48.808;11.292;2023-07-20T03:12:42;20.30;70.40
24402;DHT22;12539;48.808;11.292;2023-07-20T03:15:07;20.40;70.50
24402;DHT22;12539;48.808;11.292;2023-07-20T03:17:33;20.40;70.50
24402;DHT22;12539;48.808;11.292;2023-07-20T03:19:59;20.30;70.30
24402;DHT22;12539;48.808;11.292;2023-07-20T03:22:26;20.30;70.40
24402;DHT22;12539;48.808;11.292;2023-07-20T03:24:51;20.30;70.50
24402;DHT22;12539;48.808;11.292;2023-07-20T03:27:17;20.30;70.60
24402;DHT22;12539;48.808;11.292;2023-07-20T03:29:43;20.20;70.80
24402;DHT22;12539;48.808;11.292;2023-07-20T03:32:09;20.10;70.60
24402;DHT22;12539;48.808;11.292;2023-07-20T03:34:35;20.00;71.00
24402;DHT22;12539;48.808;11.292;2023-07-20T03:37:01;19.90;71.30
24402;DHT22;12539;48.808;11.292;2023-07-20T03:39:26;19.90;71.60
24402;DHT22;12539;48.808;11.292;2023-07-20T03:41:52;19.80;71.60
24402;DHT22;12539;48.808;11.292;2023-07-20T03:44:18;19.80;71.70
24402;DHT22;12539;48.808;11.292;2023-07-20T03:46:43;19.70;71.80
24402;DHT22;12539;48.808;11.292;2023-07-20T03:49:09;19.60;72.10
24402;DHT22;12539;48.808;11.292;2023-07-20T03:51:35;19.60;72.40
24402;DHT22;12539;48.808;11.292;2023-07-20T03:54:01;19.60;72.30
24402;DHT22;12539;48.808;11.292;2023-07-20T03:56:26;19.60;72.50
24402;DHT22;12539;48.808;11.292;2023-07-20T03:58:52;19.60;72.40
24402;DHT22;12539;48.808;11.292;2023-07-20T04:01:18;19.60;72.40
24402;DHT22;12539;48.808;11.292;2023-07-20T04:03:43;19.60;72.30
24402;DHT22;12539;48.808;11.292;2023-07-20T04:06:09;19.60;72.30
24402;DHT22;12539;48.808;11.292;2023-07-20T04:08:37;19.70;72.20
24402;DHT22;12539;48.808;11.292;2023-07-20T04:11:03;19.70;72.20
24402;DHT22;12539;48.808;11.292;2023-07-20T04:13:29;19.80;72.10
24402;DHT22;12539;48.808;11.292;2023-07-20T04:15:58;19.80;72.00
24402;DHT22;12539;48.808;11.292;2023-07-20T04:18:24;19.80;72.00
24402;DHT22;12539;48.808;11.292;2023-07-20T04:20:49;19.90;71.90
24402;DHT22;12539;48.808;11.292;2023-07-20T04:23:15;19.90;71.90
24402;DHT22;12539;48.808;11.292;2023-07-20T04:25:41;19.90;71.80
24402;DHT22;12539;48.808;11.292;2023-07-20T04:28:07;19.90;71.90
24402;DHT22;12539;48.808;11.292;2023-07-20T04:30:36;19.90;71.60
24402;DHT22;12539;48.808;11.292;2023-07-20T04:33:02;19.90;71.80
24402;DHT22;12539;48.808;11.292;2023-07-20T04:35:50;19.90;71.60
24402;DHT22;12539;48.808;11.292;2023-07-20T04:38:13;20.00;71.70
24402;DHT22;12539;48.808;11.292;2023-07-20T04:40:41;20.10;71.60
24402;DHT22;12539;48.808;11.292;2023-07-20T04:43:07;20.30;71.40
24402;DHT22;12539;48.808;11.292;2023-07-20T04:45:32;20.30;71.00
24402;DHT22;12539;48.808;11.292;2023-07-20T04:47:58;20.50;70.80
24402;DHT22;12539;48.808;11.292;2023-07-20T04:50:23;20.50;69.80
24402;DHT22;12539;48.808;11.292;2023-07-20T04:52:50;20.60;70.10
24402;DHT22;12539;48.808;11.292;2023-07-20T04:55:16;20.50;69.80
24402;DHT22;12539;48.808;11.292;2023-07-20T04:57:41;20.60;70.00
24402;DHT22;12539;48.808;11.292;2023-07-20T05:00:07;20.60;69.80
24402;DHT22;12539;48.808;11.292;2023-07-20T05:02:35;20.70;70.30
24402;DHT22;12539;48.808;11.292;2023-07-20T05:05:00;20.80;70.40
24402;DHT22;12539;48.808;11.292;2023-07-20T05:07:27;20.90;70.20
24402;DHT22;12539;48.808;11.292;2023-07-20T05:09:52;21.00;70.30
24402;DHT22;12539;48.808;11.292;2023-07-20T05:12:18;21.10;70.10
24402;DHT22;12539;48.808;11.292;2023-07-20T05:14:43;21.20;70.10
24402;DHT22;12539;48.808;11.292;2023-07-20T05:17:09;21.40;70.00
24402;DHT22;12539;48.808;11.292;2023-07-20T05:19:34;21.50;69.70
24402;DHT22;12539;48.808;11.292;2023-07-20T05:22:00;21.60;69.20
24402;DHT22;12539;48.808;11.292;2023-07-20T05:24:25;21.70;68.90
24402;DHT22;12539;48.808;11.292;2023-07-20T05:26:51;21.80;69.00
24402;DHT22;12539;48.808;11.292;2023-07-20T05:29:17;21.90;68.80
24402;DHT22;12539;48.808;11.292;2023-07-20T05:31:42;21.90;68.50
24402;DHT22;12539;48.808;11.292;2023-07-20T05:34:08;22.00;67.90
24402;DHT22;12539;48.808;11.292;2023-07-20T05:36:33;22.10;67.50
24402;DHT22;12539;48.808;11.292;2023-07-20T05:38:59;22.30;67.40
24402;DHT22;12539;48.808;11.292;2023-07-20T05:41:24;22.30;66.40
24402;DHT22;12539;48.808;11.292;2023-07-20T05:43:50;22.50;66.10
24402;DHT22;12539;48.808;11.292;2023-07-20T05:46:15;22.60;65.60
24402;DHT22;12539;48.808;11.292;2023-07-20T05:48:41;22.80;64.80
24402;DHT22;12539;48.808;11.292;2023-07-20T05:51:07;22.90;64.10
24402;DHT22;12539;48.808;11.292;2023-07-20T05:53:32;22.90;63.90
24402;DHT22;12539;48.808;11.292;2023-07-20T05:55:58;23.10;63.30
24402;DHT22;12539;48.808;11.292;2023-07-20T05:58:23;23.10;63.20
24402;DHT22;12539;48.808;11.292;2023-07-20T06:00:49;23.20;62.70
24402;DHT22;12539;48.808;11.292;2023-07-20T06:03:16;23.30;62.30
24402;DHT22;12539;48.808;11.292;2023-07-20T06:05:42;23.40;62.20
24402;DHT22;12539;48.808;11.292;2023-07-20T06:08:07;23.50;60.90
24402;DHT22;12539;48.808;11.292;2023-07-20T06:10:33;23.60;61.10
24402;DHT22;12539;48.808;11.292;2023-07-20T06:12:59;23.70;60.80
24402;DHT22;12539;48.808;11.292;2023-07-20T06:15:27;23.80;60.60
24402;DHT22;12539;48.808;11.292;2023-07-20T06:17:53;24.10;60.20
24402;DHT22;12539;48.808;11.292;2023-07-20T06:20:19;24.60;59.30
24402;DHT22;12539;48.808;11.292;2023-07-20T06:22:44;25.10;58.30
24402;DHT22;12539;48.808;11.292;2023-07-20T06:25:11;25.60;57.30
24402;DHT22;12539;48.808;11.292;2023-07-20T06:27:36;26.30;55.80
24402;DHT22;12539;48.808;11.292;2023-07-20T06:30:02;27.00;55.00
24402;DHT22;12539;48.808;11.292;2023-07-20T06:32:27;27.60;53.70
24402;DHT22;12539;48.808;11.292;2023-07-20T06:34:53;27.90;52.90
24402;DHT22;12539;48.808;11.292;2023-07-20T06:37:18;27.90;52.70
24402;DHT22;12539;48.808;11.292;2023-07-20T06:39:45;28.10;52.60
24402;DHT22;12539;48.808;11.292;2023-07-20T06:42:11;28.30;51.60
24402;DHT22;12539;48.808;11.292;2023-07-20T06:44:37;28.90;51.10
24402;DHT22;12539;48.808;11.292;2023-07-20T06:47:02;29.90;49.80
24402;DHT22;12539;48.808;11.292;2023-07-20T06:49:28;30.70;48.80
24402;DHT22;12539;48.808;11.292;2023-07-20T06:51:54;31.90;47.30
24402;DHT22;12539;48.808;11.292;2023-07-20T06:54:20;33.20;45.60
24402;DHT22;12539;48.808;11.292;2023-07-20T06:56:47;34.60;40.80
24402;DHT22;12539;48.808;11.292;2023-07-20T06:59:13;35.60;41.10
24402;DHT22;12539;48.808;11.292;2023-07-20T07:01:39;35.90;40.10
24402;DHT22;12539;48.808;11.292;2023-07-20T07:04:04;35.60;39.70
24402;DHT22;12539;48.808;11.292;2023-07-20T07:06:30;34.70;38.50
24402;DHT22;12539;48.808;11.292;2023-07-20T07:08:56;33.60;39.90
24402;DHT22;12539;48.808;11.292;2023-07-20T07:11:21;32.60;41.50
24402;DHT22;12539;48.808;11.292;2023-07-20T07:13:48;31.70;42.50
24402;DHT22;12539;48.808;11.292;2023-07-20T07:16:15;30.90;43.70
24402;DHT22;12539;48.808;11.292;2023-07-20T07:18:44;30.20;44.10
24402;DHT22;12539;48.808;11.292;2023-07-20T07:21:10;29.40;44.90
24402;DHT22;12539;48.808;11.292;2023-07-20T07:23:35;28.80;46.00
24402;DHT22;12539;48.808;11.292;2023-07-20T07:26:01;28.30;46.20
24402;DHT22;12539;48.808;11.292;2023-07-20T07:28:28;27.80;47.60
24402;DHT22;12539;48.808;11.292;2023-07-20T07:30:54;27.40;48.10
24402;DHT22;12539;48.808;11.292;2023-07-20T07:33:20;27.10;49.00
24402;DHT22;12539;48.808;11.292;2023-07-20T07:35:45;26.80;49.60
24402;DHT22;12539;48.808;11.292;2023-07-20T07:38:11;26.60;49.70
24402;DHT22;12539;48.808;11.292;2023-07-20T07:40:36;26.50;50.90
24402;DHT22;12539;48.808;11.292;2023-07-20T07:43:02;26.40;51.10
24402;DHT22;12539;48.808;11.292;2023-07-20T07:45:28;26.30;51.10
24402;DHT22;12539;48.808;11.292;2023-07-20T07:47:54;26.10;50.90
24402;DHT22;12539;48.808;11.292;2023-07-20T07:50:20;25.80;51.80
24402;DHT22;12539;48.808;11.292;2023-07-20T07:52:45;25.80;52.20
24402;DHT22;12539;48.808;11.292;2023-07-20T07:55:11;25.80;52.50
24402;DHT22;12539;48.808;11.292;2023-07-20T07:57:37;25.80;52.60
24402;DHT22;12539;48.808;11.292;2023-07-20T08:00:03;25.80;52.60
24402;DHT22;12539;48.808;11.292;2023-07-20T08:02:29;25.90;53.00
24402;DHT22;12539;48.808;11.292;2023-07-20T08:04:54;25.80;53.10
24402;DHT22;12539;48.808;11.292;2023-07-20T08:07:22;25.80;53.00
24402;DHT22;12539;48.808;11.292;2023-07-20T08:09:48;25.70;52.90
24402;DHT22;12539;48.808;11.292;2023-07-20T08:12:13;25.60;52.00
24402;DHT22;12539;48.808;11.292;2023-07-20T08:14:39;25.30;52.90
24402;DHT22;12539;48.808;11.292;2023-07-20T08:17:05;25.20;53.60
24402;DHT22;12539;48.808;11.292;2023-07-20T08:19:30;25.20;53.50
24402;DHT22;12539;48.808;11.292;2023-07-20T08:21:56;25.20;54.00
24402;DHT22;12539;48.808;11.292;2023-07-20T08:24:21;25.20;54.00
24402;DHT22;12539;48.808;11.292;2023-07-20T08:26:47;25.20;54.00
24402;DHT22;12539;48.808;11.292;2023-07-20T08:29:12;25.30;54.30
24402;DHT22;12539;48.808;11.292;2023-07-20T08:31:38;25.30;54.40
24402;DHT22;12539;48.808;11.292;2023-07-20T08:34:03;25.40;54.40
24402;DHT22;12539;48.808;11.292;2023-07-20T08:36:29;25.40;54.00
24402;DHT22;12539;48.808;11.292;2023-07-20T08:38:54;25.40;54.10
24402;DHT22;12539;48.808;11.292;2023-07-20T08:41:20;25.50;53.50
24402;DHT22;12539;48.808;11.292;2023-07-20T08:43:46;25.50;53.30
24402;DHT22;12539;48.808;11.292;2023-07-20T08:46:12;25.60;52.70
24402;DHT22;12539;48.808;11.292;2023-07-20T08:48:39;25.70;52.40
24402;DHT22;12539;48.808;11.292;2023-07-20T08:51:05;25.70;52.30
24402;DHT22;12539;48.808;11.292;2023-07-20T08:53:31;25.70;51.40
24402;DHT22;12539;48.808;11.292;2023-07-20T08:55:57;25.80;51.80
24402;DHT22;12539;48.808;11.292;2023-07-20T08:58:24;25.90;51.00
24402;DHT22;12539;48.808;11.292;2023-07-20T09:00:51;25.90;50.50
24402;DHT22;12539;48.808;11.292;2023-07-20T09:03:18;25.90;49.20
24402;DHT22;12539;48.808;11.292;2023-07-20T09:05:44;25.90;48.90
24402;DHT22;12539;48.808;11.292;2023-07-20T09:08:10;26.00;49.40
24402;DHT22;12539;48.808;11.292;2023-07-20T09:10:36;26.10;49.50
24402;DHT22;12539;48.808;11.292;2023-07-20T09:13:01;26.00;49.00
24402;DHT22;12539;48.808;11.292;2023-07-20T09:15:28;25.90;49.40
24402;DHT22;12539;48.808;11.292;2023-07-20T09:17:54;25.90;50.00
24402;DHT22;12539;48.808;11.292;2023-07-20T09:20:20;25.80;50.20
24402;DHT22;12539;48.808;11.292;2023-07-20T09:22:45;25.70;50.50
24402;DHT22;12539;48.808;11.292;2023-07-20T09:27:38;25.40;50.20
24402;DHT22;12539;48.808;11.292;2023-07-20T09:30:05;25.30;50.60
24402;DHT22;12539;48.808;11.292;2023-07-20T09:32:37;25.20;50.70
24402;DHT22;12539;48.808;11.292;2023-07-20T09:38:07;25.30;49.80
24402;DHT22;12539;48.808;11.292;2023-07-20T09:40:37;25.30;49.70
24402;DHT22;12539;48.808;11.292;2023-07-20T09:43:07;25.30;50.00
24402;DHT22;12539;48.808;11.292;2023-07-20T09:45:33;25.20;49.80
24402;DHT22;12539;48.808;11.292;2023-07-20T09:48:08;25.20;49.40
24402;DHT22;12539;48.808;11.292;2023-07-20T09:50:40;25.10;48.80
24402;DHT22;12539;48.808;11.292;2023-07-20T09:53:12;25.10;48.20
24402;DHT22;12539;48.808;11.292;2023-07-20T09:55:39;25.00;48.60
24402;DHT22;12539;48.808;11.292;2023-07-20T09:58:05;24.80;49.20
24402;DHT22;12539;48.808;11.292;2023-07-20T10:00:32;24.70;49.10
24402;DHT22;12539;48.808;11.292;2023-07-20T10:02:58;24.70;49.70
24402;DHT22;12539;48.808;11.292;2023-07-20T10:05:26;24.70;50.40
24402;DHT22;12539;48.808;11.292;2023-07-20T10:07:53;24.70;49.00
24402;DHT22;12539;48.808;11.292;2023-07-20T10:10:19;24.60;48.90
24402;DHT22;12539;48.808;11.292;2023-07-20T10:12:46;24.60;49.20
24402;DHT22;12539;48.808;11.292;2023-07-20T10:15:15;24.60;48.70
24402;DHT22;12539;48.808;11.292;2023-07-20T10:17:49;24.50;49.20
24402;DHT22;12539;48.808;11.292;2023-07-20T10:20:16;24.60;49.50
24402;DHT22;12539;48.808;11.292;2023-07-20T10:22:42;24.60;48.60
24402;DHT22;12539;48.808;11.292;2023-07-20T10:25:08;24.70;49.30
24402;DHT22;12539;48.808;11.292;2023-07-20T10:27:34;24.70;47.90
24402;DHT22;12539;48.808;11.292;2023-07-20T10:30:00;24.80;47.90
24402;DHT22;12539;48.808;11.292;2023-07-20T10:32:27;24.90;47.40
24402;DHT22;12539;48.808;11.292;2023-07-20T10:34:55;24.90;47.10
24402;DHT22;12539;48.808;11.292;2023-07-20T10:37:45;24.80;47.90
24402;DHT22;12539;48.808;11.292;2023-07-20T10:40:24;24.80;47.60
24402;DHT22;12539;48.808;11.292;2023-07-20T10:42:50;24.70;47.70
24402;DHT22;12539;48.808;11.292;2023-07-20T10:45:16;24.70;47.30
24402;DHT22;12539;48.808;11.292;2023-07-20T10:47:45;24.60;47.00
24402;DHT22;12539;48.808;11.292;2023-07-20T10:50:11;24.70;47.30
24402;DHT22;12539;48.808;11.292;2023-07-20T10:52:37;24.80;47.40
24402;DHT22;12539;48.808;11.292;2023-07-20T10:55:24;24.90;47.60
24402;DHT22;12539;48.808;11.292;2023-07-20T10:58:11;25.00;46.50
24402;DHT22;12539;48.808;11.292;2023-07-20T11:00:37;25.10;46.40
24402;DHT22;12539;48.808;11.292;2023-07-20T11:03:03;25.10;46.80
24402;DHT22;12539;48.808;11.292;2023-07-20T11:05:47;25.30;46.90
24402;DHT22;12539;48.808;11.292;2023-07-20T11:08:14;25.30;46.30
24402;DHT22;12539;48.808;11.292;2023-07-20T11:13:53;25.30;45.30
24402;DHT22;12539;48.808;11.292;2023-07-20T11:16:18;25.40;44.70
24402;DHT22;12539;48.808;11.292;2023-07-20T11:18:44;25.40;43.40
24402;DHT22;12539;48.808;11.292;2023-07-20T11:23:54;25.60;43.40
24402;DHT22;12539;48.808;11.292;2023-07-20T11:26:20;25.70;43.40
24402;DHT22;12539;48.808;11.292;2023-07-20T11:28:49;25.80;43.40
24402;DHT22;12539;48.808;11.292;2023-07-20T11:31:15;25.70;42.20
24402;DHT22;12539;48.808;11.292;2023-07-20T11:33:43;25.50;42.50
24402;DHT22;12539;48.808;11.292;2023-07-20T11:36:09;25.40;42.90
24402;DHT22;12539;48.808;11.292;2023-07-20T11:38:34;25.30;42.80
24402;DHT22;12539;48.808;11.292;2023-07-20T11:41:02;25.20;44.00
24402;DHT22;12539;48.808;11.292;2023-07-20T11:43:27;25.20;43.70
24402;DHT22;12539;48.808;11.292;2023-07-20T11:45:53;25.10;43.50
24402;DHT22;12539;48.808;11.292;2023-07-20T11:48:18;25.10;43.10
24402;DHT22;12539;48.808;11.292;2023-07-20T11:50:44;25.20;43.50
24402;DHT22;12539;48.808;11.292;2023-07-20T11:53:09;25.20;43.30
24402;DHT22;12539;48.808;11.292;2023-07-20T11:55:36;25.30;41.70
24402;DHT22;12539;48.808;11.292;2023-07-20T11:58:05;25.40;41.50
24402;DHT22;12539;48.808;11.292;2023-07-20T12:00:31;25.60;41.90
24402;DHT22;12539;48.808;11.292;2023-07-20T12:02:58;25.70;41.90
24402;DHT22;12539;48.808;11.292;2023-07-20T12:05:23;25.80;40.70
24402;DHT22;12539;48.808;11.292;2023-07-20T12:07:49;25.90;40.90
24402;DHT22;12539;48.808;11.292;2023-07-20T12:10:15;25.90;40.70
24402;DHT22;12539;48.808;11.292;2023-07-20T12:12:42;25.90;40.70
24402;DHT22;12539;48.808;11.292;2023-07-20T12:15:19;25.90;40.80
24402;DHT22;12539;48.808;11.292;2023-07-20T12:17:45;26.00;40.50
24402;DHT22;12539;48.808;11.292;2023-07-20T12:20:11;26.00;40.70
24402;DHT22;12539;48.808;11.292;2023-07-20T12:22:40;26.10;40.60
24402;DHT22;12539;48.808;11.292;2023-07-20T12:25:09;26.10;40.30
24402;DHT22;12539;48.808;11.292;2023-07-20T12:27:37;26.20;40.00
24402;DHT22;12539;48.808;11.292;2023-07-20T12:30:04;26.20;40.20
24402;DHT22;12539;48.808;11.292;2023-07-20T12:32:30;26.30;40.70
24402;DHT22;12539;48.808;11.292;2023-07-20T12:34:55;26.30;40.30
24402;DHT22;12539;48.808;11.292;2023-07-20T12:37:21;26.30;39.70
24402;DHT22;12539;48.808;11.292;2023-07-20T12:39:46;26.30;40.40
24402;DHT22;12539;48.808;11.292;2023-07-20T12:42:12;26.30;39.90
24402;DHT22;12539;48.808;11.292;2023-07-20T12:44:40;26.20;40.00
24402;DHT22;12539;48.808;11.292;2023-07-20T12:47:06;26.10;39.60
24402;DHT22;12539;48.808;11.292;2023-07-20T12:49:31;26.00;39.90
24402;DHT22;12539;48.808;11.292;2023-07-20T12:51:57;26.00;40.70
24402;DHT22;12539;48.808;11.292;2023-07-20T12:54:22;26.00;40.50
24402;DHT22;12539;48.808;11.292;2023-07-20T12:56:48;26.10;39.60
24402;DHT22;12539;48.808;11.292;2023-07-20T12:59:13;26.20;39.20
24402;DHT22;12539;48.808;11.292;2023-07-20T13:01:39;26.30;39.10
24402;DHT22;12539;48.808;11.292;2023-07-20T13:04:07;26.50;38.60
24402;DHT22;12539;48.808;11.292;2023-07-20T13:06:34;26.70;39.00
24402;DHT22;12539;48.808;11.292;2023-07-20T13:09:00;26.80;39.00
24402;DHT22;12539;48.808;11.292;2023-07-20T13:11:26;26.90;39.10
24402;DHT22;12539;48.808;11.292;2023-07-20T13:13:53;27.00;39.30
24402;DHT22;12539;48.808;11.292;2023-07-20T13:16:19;27.10;39.20
24402;DHT22;12539;48.808;11.292;2023-07-20T13:18:44;27.10;38.70
24402;DHT22;12539;48.808;11.292;2023-07-20T13:21:10;27.10;38.50
24402;DHT22;12539;48.808;11.292;2023-07-20T13:23:37;27.10;38.60
24402;DHT22;12539;48.808;11.292;2023-07-20T13:26:04;27.10;38.50
24402;DHT22;12539;48.808;11.292;2023-07-20T13:28:29;26.90;38.60
24402;DHT22;12539;48.808;11.292;2023-07-20T13:30:55;26.70;39.20
24402;DHT22;12539;48.808;11.292;2023-07-20T13:33:21;26.60;39.80
24402;DHT22;12539;48.808;11.292;2023-07-20T13:35:46;26.40;39.60
24402;DHT22;12539;48.808;11.292;2023-07-20T13:38:12;26.20;40.10
24402;DHT22;12539;48.808;11.292;2023-07-20T13:40:37;26.00;40.40
24402;DHT22;12539;48.808;11.292;2023-07-20T13:43:03;25.90;40.20
24402;DHT22;12539;48.808;11.292;2023-07-20T13:45:29;25.80;41.40
24402;DHT22;12539;48.808;11.292;2023-07-20T13:47:54;25.60;41.30
24402;DHT22;12539;48.808;11.292;2023-07-20T13:50:20;25.50;41.50
24402;DHT22;12539;48.808;11.292;2023-07-20T13:52:46;25.40;41.50
24402;DHT22;12539;48.808;11.292;2023-07-20T13:55:12;25.40;41.60
24402;DHT22;12539;48.808;11.292;2023-07-20T13:57:37;25.50;41.70
24402;DHT22;12539;48.808;11.292;2023-07-20T14:00:03;25.60;41.10
24402;DHT22;12539;48.808;11.292;2023-07-20T14:02:29;25.70;41.00
24402;DHT22;12539;48.808;11.292;2023-07-20T14:04:54;25.90;41.10
24402;DHT22;12539;48.808;11.292;2023-07-20T14:07:21;26.10;40.70
24402;DHT22;12539;48.808;11.292;2023-07-20T14:09:47;26.30;42.10
24402;DHT22;12539;48.808;11.292;2023-07-20T14:12:12;26.50;40.90
24402;DHT22;12539;48.808;11.292;2023-07-20T14:14:42;26.60;40.20
24402;DHT22;12539;48.808;11.292;2023-07-20T14:17:10;26.80;39.80
24402;DHT22;12539;48.808;11.292;2023-07-20T14:19:37;26.90;39.50
24402;DHT22;12539;48.808;11.292;2023-07-20T14:22:02;26.90;39.30
24402;DHT22;12539;48.808;11.292;2023-07-20T14:24:29;26.90;39.90
24402;DHT22;12539;48.808;11.292;2023-07-20T14:26:54;26.90;38.70
24402;DHT22;12539;48.808;11.292;2023-07-20T14:29:20;27.00;39.30
24402;DHT22;12539;48.808;11.292;2023-07-20T14:31:46;26.90;38.60
24402;DHT22;12539;48.808;11.292;2023-07-20T14:34:18;26.90;38.40
24402;DHT22;12539;48.808;11.292;2023-07-20T14:36:44;26.70;39.30
24402;DHT22;12539;48.808;11.292;2023-07-20T14:39:10;26.70;39.00
24402;DHT22;12539;48.808;11.292;2023-07-20T14:41:35;26.70;38.70
24402;DHT22;12539;48.808;11.292;2023-07-20T14:44:01;26.80;40.00
24402;DHT22;12539;48.808;11.292;2023-07-20T14:46:27;26.90;39.40
24402;DHT22;12539;48.808;11.292;2023-07-20T14:48:53;26.90;38.10
24402;DHT22;12539;48.808;11.292;2023-07-20T14:51:18;26.90;37.90
24402;DHT22;12539;48.808;11.292;2023-07-20T14:53:44;26.90;38.10
24402;DHT22;12539;48.808;11.292;2023-07-20T14:56:10;26.80;38.10
24402;DHT22;12539;48.808;11.292;2023-07-20T14:58:36;26.80;38.10
24402;DHT22;12539;48.808;11.292;2023-07-20T15:01:02;26.80;37.60
24402;DHT22;12539;48.808;11.292;2023-07-20T15:03:27;26.80;37.70
24402;DHT22;12539;48.808;11.292;2023-07-20T15:05:53;26.80;38.60
24402;DHT22;12539;48.808;11.292;2023-07-20T15:08:19;26.70;37.90
24402;DHT22;12539;48.808;11.292;2023-07-20T15:10:45;26.60;37.80
24402;DHT22;12539;48.808;11.292;2023-07-20T15:13:12;26.50;37.60
24402;DHT22;12539;48.808;11.292;2023-07-20T15:15:37;26.40;38.40
24402;DHT22;12539;48.808;11.292;2023-07-20T15:18:03;26.30;38.10
24402;DHT22;12539;48.808;11.292;2023-07-20T15:20:28;26.30;39.80
24402;DHT22;12539;48.808;11.292;2023-07-20T15:22:57;26.10;38.80
24402;DHT22;12539;48.808;11.292;2023-07-20T15:25:22;26.10;39.30
24402;DHT22;12539;48.808;11.292;2023-07-20T15:27:48;26.00;40.00
24402;DHT22;12539;48.808;11.292;2023-07-20T15:30:14;26.00;40.80
24402;DHT22;12539;48.808;11.292;2023-07-20T15:32:40;26.00;40.20
24402;DHT22;12539;48.808;11.292;2023-07-20T15:35:09;26.00;39.60